createdAt,value
2018-07-11T00:01:02.313Z,3.03
2018-07-11T00:03:41.224Z,3.23
2018-07-11T00:06:09.762Z,3.50
2018-07-11T00:08:38.627Z,3.33
2018-07-11T00:11:07.247Z,3.00
2018-07-11T00:13:35.930Z,2.90
2018-07-11T00:16:04.607Z,3.20
2018-07-11T00:18:33.191Z,5.00
2018-07-11T00:21:02.090Z,3.43
2018-07-11T00:23:30.788Z,3.27
2018-07-11T00:25:59.443Z,9.73
2018-07-11T00:28:27.953Z,4.00
2018-07-11T00:30:56.706Z,3.83
2018-07-11T00:33:25.305Z,3.23
2018-07-11T00:35:53.835Z,2.90
2018-07-11T00:38:22.847Z,3.00
2018-07-11T00:40:52.119Z,3.10
2018-07-11T00:43:20.882Z,3.07
2018-07-11T00:45:49.766Z,2.60
2018-07-11T00:48:18.465Z,2.90
2018-07-11T00:50:47.382Z,3.20
2018-07-11T00:53:16.589Z,3.20
2018-07-11T00:55:46.055Z,3.37
2018-07-11T00:58:23.817Z,3.10
2018-07-11T01:01:03.666Z,3.50
2018-07-11T01:03:32.359Z,5.07
2018-07-11T01:06:01.048Z,3.77
2018-07-11T01:08:29.745Z,3.73
2018-07-11T01:11:01.766Z,4.20
2018-07-11T01:13:30.488Z,4.30
2018-07-11T01:15:59.253Z,5.90
2018-07-11T01:18:27.948Z,5.23
2018-07-11T01:20:56.665Z,5.87
2018-07-11T01:23:25.305Z,5.80
2018-07-11T01:25:53.977Z,8.00
2018-07-11T01:28:22.837Z,8.63
2018-07-11T01:30:51.590Z,7.90
2018-07-11T01:33:20.270Z,7.97
2018-07-11T01:35:49.109Z,8.17
2018-07-11T01:38:17.916Z,8.97
2018-07-11T01:40:46.886Z,9.17
2018-07-11T01:43:15.933Z,9.40
2018-07-11T01:45:44.636Z,8.70
2018-07-11T01:48:13.320Z,12.00
2018-07-11T01:50:42.036Z,9.83
2018-07-11T01:53:10.732Z,10.90
2018-07-11T01:55:39.400Z,10.97
2018-07-11T01:58:08.293Z,11.67
2018-07-11T02:00:37.037Z,11.53
2018-07-11T02:03:05.918Z,14.77
2018-07-11T02:05:34.689Z,12.87
2018-07-11T02:08:03.772Z,12.33
2018-07-11T02:10:32.556Z,14.40
2018-07-11T02:13:01.303Z,14.67
2018-07-11T02:15:30.234Z,12.50
2018-07-11T02:17:59.848Z,14.03
2018-07-11T02:20:28.671Z,12.63
2018-07-11T02:22:57.398Z,12.93
2018-07-11T02:25:26.063Z,13.80
2018-07-11T02:27:54.788Z,13.87
2018-07-11T02:30:23.568Z,12.87
2018-07-11T02:32:52.539Z,13.67
2018-07-11T02:35:21.220Z,14.87
2018-07-11T02:37:49.944Z,15.80
2018-07-11T02:40:18.588Z,14.17
2018-07-11T02:42:47.327Z,15.67
2018-07-11T02:45:16.069Z,15.60
2018-07-11T02:47:45.082Z,14.17
2018-07-11T02:50:14.478Z,15.50
2018-07-11T02:52:43.411Z,16.10
2018-07-11T02:55:12.191Z,16.97
2018-07-11T02:57:40.798Z,18.13
2018-07-11T03:00:09.706Z,16.80
2018-07-11T03:02:38.460Z,17.47
2018-07-11T03:05:07.274Z,18.80
2018-07-11T03:07:35.984Z,21.27
2018-07-11T03:10:04.732Z,19.20
2018-07-11T03:12:33.542Z,22.10
2018-07-11T03:15:02.326Z,24.37
2018-07-11T03:17:31.108Z,23.70
2018-07-11T03:19:59.896Z,27.37
2018-07-11T03:22:28.655Z,26.07
2018-07-11T03:24:57.245Z,25.67
2018-07-11T03:27:26.022Z,28.40
2018-07-11T03:29:54.664Z,26.00
2018-07-11T03:32:23.507Z,26.97
2018-07-11T03:34:52.122Z,27.13
2018-07-11T03:37:20.887Z,30.10
2018-07-11T03:39:49.960Z,30.93
2018-07-11T03:42:19.024Z,29.37
2018-07-11T03:44:48.005Z,33.83
2018-07-11T03:47:16.911Z,34.73
2018-07-11T03:49:45.561Z,31.50
2018-07-11T03:52:14.461Z,33.83
2018-07-11T03:54:43.199Z,32.63
2018-07-11T03:57:11.934Z,32.17
2018-07-11T03:59:40.752Z,32.50
2018-07-11T04:02:09.795Z,33.63
2018-07-11T04:04:38.641Z,36.73
2018-07-11T04:07:07.450Z,36.00
2018-07-11T04:09:36.175Z,36.23
2018-07-11T04:12:04.958Z,38.33
2018-07-11T04:14:34.713Z,37.87
2018-07-11T04:17:03.519Z,35.13
2018-07-11T04:19:32.724Z,39.57
2018-07-11T04:22:01.691Z,35.23
2018-07-11T04:24:30.577Z,41.33
2018-07-11T04:26:59.495Z,41.63
2018-07-11T04:29:28.318Z,39.90
2018-07-11T04:31:57.414Z,40.23
2018-07-11T04:34:26.196Z,38.90
2018-07-11T04:36:54.960Z,35.50
2018-07-11T04:39:23.782Z,37.13
2018-07-11T04:41:52.771Z,35.30
2018-07-11T04:44:21.625Z,35.93
2018-07-11T04:46:50.477Z,34.67
2018-07-11T04:49:19.356Z,34.30
2018-07-11T04:51:48.310Z,31.47
2018-07-11T04:54:17.244Z,34.67
2018-07-11T04:56:46.086Z,32.53
2018-07-11T04:59:15.073Z,32.13
2018-07-11T05:01:44.076Z,32.73
2018-07-11T05:04:12.932Z,32.93
2018-07-11T05:06:41.682Z,32.87
2018-07-11T05:09:10.546Z,36.23
2018-07-11T05:11:39.369Z,33.83
2018-07-11T05:14:08.329Z,33.43
2018-07-11T05:16:39.318Z,31.20
2018-07-11T05:19:08.348Z,31.90
2018-07-11T05:21:37.243Z,29.57
2018-07-11T05:24:06.619Z,31.33
2018-07-11T05:26:38.080Z,29.40
2018-07-11T05:29:10.921Z,30.23
2018-07-11T05:31:39.764Z,32.07
2018-07-11T05:34:09.898Z,30.87
2018-07-11T05:36:38.946Z,30.47
2018-07-11T05:39:07.993Z,31.27
2018-07-11T05:41:36.988Z,32.10
2018-07-11T05:44:05.774Z,30.23
2018-07-11T05:46:34.516Z,30.97
2018-07-11T05:49:03.372Z,30.13
2018-07-11T05:51:32.297Z,26.47
2018-07-11T05:54:02.577Z,30.10
2018-07-11T05:56:31.534Z,28.33
2018-07-11T05:59:00.385Z,26.33
2018-07-11T06:01:29.471Z,24.60
2018-07-11T06:03:58.227Z,25.27
2018-07-11T06:06:27.401Z,25.23
2018-07-11T06:08:56.206Z,26.57
2018-07-11T06:11:25.919Z,27.47
2018-07-11T06:13:55.046Z,26.50
2018-07-11T06:16:24.394Z,28.37
2018-07-11T06:18:53.345Z,26.40
2018-07-11T06:21:24.969Z,25.63
2018-07-11T06:23:53.988Z,25.27
2018-07-11T06:26:23.088Z,25.37
2018-07-11T06:28:53.180Z,21.20
2018-07-11T06:31:22.253Z,23.77
2018-07-11T06:33:51.085Z,22.47
2018-07-11T06:36:20.091Z,22.73
2018-07-11T06:38:48.960Z,20.33
2018-07-11T06:41:17.972Z,18.60
2018-07-11T06:43:47.182Z,17.53
2018-07-11T06:46:16.057Z,16.97
2018-07-11T06:48:45.012Z,15.97
2018-07-11T06:51:13.734Z,15.03
2018-07-11T06:53:42.510Z,17.70
2018-07-11T06:56:11.728Z,12.73
2018-07-11T06:58:40.503Z,12.97
2018-07-11T07:01:09.508Z,11.50
2018-07-11T07:03:38.338Z,11.03
2018-07-11T07:06:07.164Z,11.23
2018-07-11T07:08:36.142Z,8.30
2018-07-11T07:11:04.858Z,10.40
2018-07-11T07:13:33.469Z,8.07
2018-07-11T07:16:02.099Z,7.47
2018-07-11T07:18:30.996Z,9.37
2018-07-11T07:21:02.246Z,7.77
2018-07-11T07:23:31.044Z,10.67
2018-07-11T07:25:59.606Z,9.17
2018-07-11T07:28:28.359Z,9.00
2018-07-11T07:30:56.989Z,8.93
2018-07-11T07:33:25.597Z,8.93
2018-07-11T07:35:54.228Z,9.90
2018-07-11T07:38:22.833Z,7.43
2018-07-11T07:40:51.427Z,12.73
2018-07-11T07:43:20.073Z,11.17
2018-07-11T07:45:48.713Z,9.20
2018-07-11T07:48:17.271Z,7.27
2018-07-11T07:50:45.957Z,10.47
2018-07-11T07:53:14.608Z,10.37
2018-07-11T07:55:43.210Z,8.23
2018-07-11T07:58:11.824Z,8.27
2018-07-11T08:00:40.502Z,8.60
2018-07-11T08:03:09.151Z,11.00
2018-07-11T08:05:37.803Z,9.13
2018-07-11T08:08:06.510Z,10.27
2018-07-11T08:10:35.180Z,14.03
2018-07-11T08:13:04.016Z,8.87
2018-07-11T08:15:34.944Z,7.73
2018-07-11T08:18:05.769Z,7.40
2018-07-11T08:20:34.837Z,6.83
2018-07-11T08:23:16.471Z,13.87
2018-07-11T08:25:57.298Z,7.90
2018-07-11T08:29:34.848Z,8.03
2018-07-11T08:33:15.687Z,6.93
2018-07-11T08:35:55.319Z,11.17
2018-07-11T08:38:36.958Z,10.50
2018-07-11T08:42:19.758Z,11.03
2018-07-11T08:45:32.023Z,8.08
2018-07-11T08:50:16.675Z,8.97
2018-07-11T08:52:56.374Z,7.20
2018-07-11T08:55:40.677Z,8.00
2018-07-11T09:00:26.899Z,6.10
2018-07-11T09:03:23.999Z,10.47
2018-07-11T09:08:10.510Z,6.47
2018-07-11T09:10:50.133Z,5.83
2018-07-11T09:15:31.820Z,5.57
2018-07-11T09:18:42.072Z,8.27
2018-07-11T09:21:22.840Z,8.73
2018-07-11T09:24:03.977Z,6.70
2018-07-11T09:26:36.026Z,7.30
2018-07-11T09:29:04.769Z,5.30
2018-07-11T09:31:33.508Z,5.63
2018-07-11T09:34:02.091Z,8.97
2018-07-11T09:36:30.806Z,6.23
2018-07-11T09:38:59.487Z,6.17
2018-07-11T09:41:28.168Z,5.73
2018-07-11T09:43:57.101Z,7.03
2018-07-11T09:46:26.075Z,8.93
2018-07-11T09:48:54.834Z,8.83
2018-07-11T09:51:23.717Z,5.73
2018-07-11T09:53:52.753Z,11.43
2018-07-11T09:56:21.602Z,7.47
2018-07-11T09:58:50.461Z,4.37
2018-07-11T10:01:24.663Z,6.13
2018-07-11T10:03:53.787Z,7.47
2018-07-11T10:06:22.663Z,8.37
2018-07-11T10:08:51.535Z,5.53
2018-07-11T10:11:20.335Z,13.32
2018-07-11T10:13:49.312Z,8.83
2018-07-11T10:16:18.193Z,5.42
2018-07-11T10:18:52.775Z,5.10
2018-07-11T10:21:21.396Z,4.30
2018-07-11T10:23:50.129Z,4.83
2018-07-11T10:26:18.839Z,9.68
2018-07-11T10:28:47.609Z,5.90
2018-07-11T10:31:16.773Z,9.43
2018-07-11T10:33:45.552Z,6.65
2018-07-11T10:36:14.342Z,6.87
2018-07-11T10:38:43.095Z,7.90
2018-07-11T10:41:11.970Z,8.48
2018-07-11T10:43:40.788Z,5.97
2018-07-11T10:46:09.361Z,6.03
2018-07-11T10:48:38.233Z,5.50
2018-07-11T10:51:07.107Z,10.93
2018-07-11T10:53:36.404Z,5.08
2018-07-11T10:56:05.532Z,5.95
2018-07-11T10:58:35.830Z,6.17
2018-07-11T11:01:05.694Z,13.53
2018-07-11T11:03:35.654Z,10.43
2018-07-11T11:06:04.298Z,7.77
2018-07-11T11:08:33.071Z,6.87
2018-07-11T11:11:01.794Z,9.97
2018-07-11T11:13:30.553Z,10.07
2018-07-11T11:15:59.274Z,7.27
2018-07-11T11:18:27.956Z,7.83
2018-07-11T11:20:57.325Z,7.00
2018-07-11T11:23:26.956Z,6.00
2018-07-11T11:25:56.025Z,6.57
2018-07-11T11:28:24.941Z,6.20
2018-07-11T11:30:53.897Z,6.77
2018-07-11T11:33:23.200Z,5.13
2018-07-11T11:35:53.062Z,5.57
2018-07-11T11:38:22.225Z,8.23
2018-07-11T11:40:51.531Z,6.90
2018-07-11T11:43:20.092Z,11.77
2018-07-11T11:45:48.504Z,5.90
2018-07-11T11:48:17.213Z,5.90
2018-07-11T11:50:45.988Z,6.07
2018-07-11T11:53:14.705Z,7.50
2018-07-11T11:55:43.847Z,5.73
2018-07-11T11:58:12.419Z,6.40
2018-07-11T12:00:41.121Z,6.37
2018-07-11T12:03:09.875Z,5.53
2018-07-11T12:05:39.080Z,8.03
2018-07-11T12:08:07.992Z,4.90
2018-07-11T12:10:36.564Z,5.93
2018-07-11T12:13:05.097Z,8.40
2018-07-11T12:15:34.023Z,7.00
2018-07-11T12:18:02.709Z,6.03
2018-07-11T12:20:31.219Z,9.63
2018-07-11T12:22:59.898Z,7.17
2018-07-11T12:25:28.506Z,6.97
2018-07-11T12:27:57.173Z,8.57
2018-07-11T12:30:25.863Z,12.27
2018-07-11T12:32:54.584Z,11.37
2018-07-11T12:35:23.347Z,6.77
2018-07-11T12:37:52.072Z,5.90
2018-07-11T12:40:20.574Z,4.50
2018-07-11T12:42:49.164Z,5.13
2018-07-11T12:45:17.796Z,8.50
2018-07-11T12:47:51.653Z,4.93
2018-07-11T12:50:20.276Z,6.90
2018-07-11T12:52:49.141Z,3.97
2018-07-11T12:55:17.800Z,5.30
2018-07-11T12:57:46.507Z,5.23
2018-07-11T13:00:15.192Z,6.03
2018-07-11T13:02:43.845Z,10.03
2018-07-11T13:05:12.497Z,4.80
2018-07-11T13:07:41.231Z,11.60
2018-07-11T13:10:09.923Z,4.83
2018-07-11T13:12:38.653Z,4.73
2018-07-11T13:15:07.329Z,5.07
2018-07-11T13:17:35.910Z,5.37
2018-07-11T13:20:04.589Z,5.37
2018-07-11T13:22:33.173Z,5.13
2018-07-11T13:25:01.903Z,5.77
2018-07-11T13:27:30.468Z,5.80
2018-07-11T13:29:59.196Z,8.43
2018-07-11T13:32:27.874Z,3.97
2018-07-11T13:34:57.164Z,4.37
2018-07-11T13:37:25.873Z,6.10
2018-07-11T13:39:54.525Z,11.97
2018-07-11T13:42:23.115Z,12.73
2018-07-11T13:44:51.777Z,7.03
2018-07-11T13:47:25.457Z,6.83
2018-07-11T13:49:54.037Z,9.50
2018-07-11T13:52:22.710Z,7.47
2018-07-11T13:54:51.460Z,6.87
2018-07-11T13:57:21.687Z,5.70
2018-07-11T13:59:50.242Z,6.47
2018-07-11T14:02:18.895Z,5.33
2018-07-11T14:04:47.585Z,5.33
2018-07-11T14:07:16.161Z,7.37
2018-07-11T14:09:44.872Z,5.67
2018-07-11T14:12:13.487Z,10.70
2018-07-11T14:14:42.249Z,8.43
2018-07-11T14:17:11.502Z,5.10
2018-07-11T14:19:40.259Z,4.80
2018-07-11T14:22:08.996Z,11.57
2018-07-11T14:24:38.139Z,6.00
2018-07-11T14:27:06.939Z,5.73
2018-07-11T14:29:35.632Z,6.60
2018-07-11T14:32:04.310Z,8.53
2018-07-11T14:34:33.371Z,7.07
2018-07-11T14:37:02.767Z,13.10
2018-07-11T14:39:31.523Z,9.67
2018-07-11T14:42:00.204Z,9.40
2018-07-11T14:44:29.365Z,10.73
2018-07-11T14:46:58.062Z,9.73
2018-07-11T14:49:26.665Z,9.97
2018-07-11T14:51:55.537Z,14.13
2018-07-11T14:54:24.293Z,10.07
2018-07-11T14:56:53.077Z,11.60
2018-07-11T14:59:21.823Z,10.13
2018-07-11T15:01:51.226Z,10.10
2018-07-11T15:04:19.808Z,10.70
2018-07-11T15:06:48.976Z,9.87
2018-07-11T15:09:18.035Z,10.40
2018-07-11T15:11:46.353Z,13.73
2018-07-11T15:14:15.035Z,13.53
2018-07-11T15:16:43.761Z,11.20
2018-07-11T15:19:12.634Z,10.87
2018-07-11T15:21:41.403Z,11.43
2018-07-11T15:24:10.225Z,10.77
2018-07-11T15:26:39.389Z,10.80
2018-07-11T15:29:08.084Z,11.20
2018-07-11T15:31:37.100Z,10.33
2018-07-11T15:34:05.906Z,12.07
2018-07-11T15:36:34.697Z,11.13
2018-07-11T15:39:03.652Z,16.50
2018-07-11T15:41:32.354Z,11.80
2018-07-11T15:44:01.273Z,12.53
2018-07-11T15:46:30.524Z,10.70
2018-07-11T15:48:59.181Z,12.00
2018-07-11T15:51:27.943Z,11.13
2018-07-11T15:53:56.668Z,12.90
2018-07-11T15:56:25.859Z,11.20
2018-07-11T15:59:02.037Z,11.80
2018-07-11T16:01:32.020Z,11.20
2018-07-11T16:04:00.765Z,11.53
2018-07-11T16:06:29.511Z,12.77
2018-07-11T16:09:00.901Z,10.87
2018-07-11T16:11:29.948Z,12.07
2018-07-11T16:13:58.596Z,15.17
2018-07-11T16:16:27.219Z,12.20
2018-07-11T16:18:55.917Z,12.10
2018-07-11T16:21:24.793Z,13.77
2018-07-11T16:23:54.029Z,12.10
2018-07-11T16:26:23.207Z,12.80
2018-07-11T16:28:52.143Z,12.87
2018-07-11T16:31:20.885Z,14.10
2018-07-11T16:33:49.645Z,10.73
2018-07-11T16:36:18.366Z,16.07
2018-07-11T16:38:47.281Z,11.53
2018-07-11T16:41:16.303Z,11.70
2018-07-11T16:43:45.551Z,15.90
2018-07-11T16:46:14.251Z,11.67
2018-07-11T16:48:42.945Z,14.47
2018-07-11T16:51:11.718Z,12.27
2018-07-11T16:53:40.557Z,12.10
2018-07-11T16:56:09.436Z,12.67
2018-07-11T16:58:47.733Z,14.13
2018-07-11T17:01:16.499Z,12.67
2018-07-11T17:03:45.734Z,12.87
2018-07-11T17:06:15.201Z,13.77
2018-07-11T17:08:51.763Z,13.23
2018-07-11T17:11:24.149Z,12.60
2018-07-11T17:14:02.652Z,12.63
2018-07-11T17:16:50.543Z,12.20
2018-07-11T17:19:33.095Z,11.17
2018-07-11T17:22:05.981Z,10.93
2018-07-11T17:24:40.330Z,12.60
2018-07-11T17:27:09.249Z,11.43
2018-07-11T17:29:38.103Z,11.67
2018-07-11T17:32:09.042Z,11.50
2018-07-11T17:34:38.491Z,11.90
2018-07-11T17:37:08.654Z,12.03
2018-07-11T17:39:47.075Z,11.73
2018-07-11T17:42:17.996Z,11.43
2018-07-11T17:44:53.613Z,11.97
2018-07-11T17:47:24.398Z,12.47
2018-07-11T17:49:56.974Z,15.07
2018-07-11T17:52:27.073Z,15.87
2018-07-11T17:55:07.194Z,13.70
2018-07-11T17:57:45.649Z,12.80
2018-07-11T18:00:23.058Z,13.40
2018-07-11T18:03:00.160Z,14.03
2018-07-11T18:05:36.217Z,13.93
2018-07-11T18:08:09.055Z,15.50
2018-07-11T18:10:47.388Z,14.30
2018-07-11T18:13:23.003Z,15.20
2018-07-11T18:17:00.325Z,16.10
2018-07-11T18:21:43.051Z,15.07
2018-07-11T18:24:20.926Z,16.53
2018-07-11T18:27:02.209Z,16.30
2018-07-11T18:29:47.640Z,16.30
2018-07-11T18:32:26.980Z,17.77
2018-07-11T18:35:32.944Z,17.23
2018-07-11T18:38:09.347Z,16.73
2018-07-11T18:40:47.661Z,15.47
2018-07-11T18:45:26.863Z,16.97
2018-07-11T18:52:13.303Z,16.30
2018-07-11T18:57:07.305Z,16.77
2018-07-11T19:03:50.645Z,18.00
2018-07-11T19:06:25.651Z,14.17
2018-07-11T19:09:07.980Z,16.10
2018-07-11T19:11:50.424Z,15.13
2018-07-11T19:14:47.766Z,14.97
2018-07-11T19:19:32.918Z,16.97
2018-07-11T19:22:07.347Z,19.90
2018-07-11T19:26:45.643Z,18.13
2018-07-11T19:29:24.459Z,19.47
2018-07-11T19:34:07.165Z,19.90
2018-07-11T19:36:49.773Z,20.37
2018-07-11T19:39:27.666Z,20.40
2018-07-11T19:42:06.942Z,22.03
2018-07-11T19:44:47.743Z,22.30
2018-07-11T19:47:24.698Z,22.83
2018-07-11T19:50:00.046Z,23.33
2018-07-11T19:53:48.994Z,24.07
2018-07-11T19:56:29.639Z,23.70
2018-07-11T19:59:00.268Z,23.10
2018-07-11T20:01:30.086Z,23.07
2018-07-11T20:03:58.835Z,23.93
2018-07-11T20:06:27.528Z,23.27
2018-07-11T20:08:56.291Z,24.03
2018-07-11T20:11:24.992Z,23.37
2018-07-11T20:13:54.732Z,23.27
2018-07-11T20:16:24.090Z,21.37
2018-07-11T20:18:53.171Z,24.97
2018-07-11T20:21:22.400Z,19.63
2018-07-11T20:23:50.976Z,19.27
2018-07-11T20:26:20.428Z,17.97
2018-07-11T20:28:49.077Z,22.07
2018-07-11T20:31:17.793Z,18.60
2018-07-11T20:33:46.485Z,20.80
2018-07-11T20:36:15.131Z,17.50
2018-07-11T20:38:44.546Z,17.37
2018-07-11T20:41:13.268Z,17.73
2018-07-11T20:43:42.033Z,17.97
2018-07-11T20:46:10.957Z,18.87
2018-07-11T20:48:40.504Z,18.93
2018-07-11T20:51:09.154Z,19.67
2018-07-11T20:53:37.856Z,17.90
2018-07-11T20:56:06.616Z,18.67
2018-07-11T20:58:46.376Z,17.63
2018-07-11T21:01:25.990Z,17.73
2018-07-11T21:05:07.369Z,19.50
2018-07-11T21:07:53.604Z,18.57
2018-07-11T21:10:36.660Z,18.97
2018-07-11T21:15:28.302Z,18.47
2018-07-11T21:19:08.726Z,20.00
2018-07-11T21:21:38.465Z,18.50
2018-07-11T21:24:07.954Z,20.07
2018-07-11T21:26:37.078Z,18.90
2018-07-11T21:29:06.400Z,19.87
2018-07-11T21:31:35.133Z,19.17
2018-07-11T21:34:04.535Z,18.50
2018-07-11T21:36:33.237Z,17.47
2018-07-11T21:39:01.862Z,17.70
2018-07-11T21:47:10.431Z,17.00
2018-07-11T21:49:39.082Z,17.63
2018-07-11T21:52:07.741Z,17.70
2018-07-11T21:54:36.421Z,17.50
2018-07-11T21:57:05.096Z,19.70
2018-07-11T21:59:33.721Z,19.03
2018-07-11T22:02:02.269Z,16.93
2018-07-11T22:04:30.826Z,18.33
2018-07-11T22:06:59.351Z,18.37
2018-07-11T22:09:27.954Z,17.03
2018-07-11T22:11:56.513Z,19.23
2018-07-11T22:14:25.066Z,18.33
2018-07-11T22:16:53.677Z,19.07
2018-07-11T22:19:22.241Z,19.43
2018-07-11T22:21:49.567Z,19.17
2018-07-11T22:24:16.942Z,17.17
2018-07-11T22:26:44.332Z,18.77
2018-07-11T22:29:11.683Z,18.30
2018-07-11T22:31:39.025Z,20.67
2018-07-11T22:34:06.359Z,18.70
2018-07-11T22:36:33.729Z,18.30
2018-07-11T22:39:01.102Z,17.80
2018-07-11T22:41:28.406Z,22.13
2018-07-11T22:43:55.765Z,18.23
2018-07-11T22:46:23.157Z,18.47
2018-07-11T22:48:50.519Z,16.97
2018-07-11T22:51:17.866Z,17.43
2018-07-11T22:53:45.177Z,18.90
2018-07-11T22:56:12.529Z,19.37
2018-07-11T22:58:39.882Z,19.33
2018-07-11T23:01:07.239Z,17.53
2018-07-11T23:03:34.524Z,17.37
2018-07-11T23:06:01.846Z,17.13
2018-07-11T23:08:29.181Z,17.60
2018-07-11T23:10:56.593Z,19.40
2018-07-11T23:13:23.920Z,16.53
2018-07-11T23:15:51.299Z,15.00
2018-07-11T23:18:18.650Z,16.20
2018-07-11T23:20:46.033Z,16.20
2018-07-11T23:23:13.380Z,19.20
2018-07-11T23:25:40.728Z,16.73
2018-07-11T23:28:08.063Z,18.97
2018-07-11T23:30:35.432Z,15.77
2018-07-11T23:33:02.763Z,17.13
2018-07-11T23:35:30.229Z,14.93
2018-07-11T23:37:57.591Z,15.10
2018-07-11T23:40:24.925Z,16.80
2018-07-11T23:42:52.324Z,20.43
2018-07-11T23:45:19.694Z,16.83
2018-07-11T23:47:47.100Z,17.67
2018-07-11T23:50:14.477Z,17.07
2018-07-11T23:52:41.796Z,17.03
2018-07-11T23:55:09.177Z,17.27
2018-07-11T23:57:36.613Z,17.87
